sensor_id;sensor_type;location;lat;lon;timestamp;pressure;altitude;pressure_sealevel;temperature;humidity
8705;BME280;4389;41.932;25.904;2024-02-28T00:00:41;-16248.31;;;6.76;100.00
8705;BME280;4389;41.932;25.904;2024-02-28T00:03:08;-16248.84;;;6.78;100.00
8705;BME280;4389;41.932;25.904;2024-02-28T00:05:35;-16246.59;;;6.69;100.00
8705;BME280;4389;41.932;25.904;2024-02-28T00:08:04;-16249.66;;;6.81;100.00
8705;BME280;4389;41.932;25.904;2024-02-28T00:10:32;-16250.97;;;6.86;100.00
8705;BME280;4389;41.932;25.904;2024-02-28T00:12:59;-16246.72;;;6.70;100.00
8705;BME280;4389;41.932;25.904;2024-02-28T00:15:26;-16244.72;;;6.62;100.00
8705;BME280;4389;41.932;25.904;2024-02-28T00:17:54;-16244.31;;;6.61;100.00
8705;BME280;4389;41.932;25.904;2024-02-28T00:20:21;-16240.84;;;6.48;100.00
8705;BME280;4389;41.932;25.904;2024-02-28T00:22:49;-16239.78;;;6.44;100.00
8705;BME280;4389;41.932;25.904;2024-02-28T00:25:17;-16239.78;;;6.44;100.00
8705;BME280;4389;41.932;25.904;2024-02-28T00:27:44;-16239.25;;;6.42;100.00
8705;BME280;4389;41.932;25.904;2024-02-28T00:30:12;-16244.06;;;6.60;100.00
8705;BME280;4389;41.932;25.904;2024-02-28T00:32:39;-16241.13;;;6.49;100.00
8705;BME280;4389;41.932;25.904;2024-02-28T00:35:06;-16240.06;;;6.45;100.00
8705;BME280;4389;41.932;25.904;2024-02-28T00:37:33;-16239.25;;;6.42;100.00
8705;BME280;4389;41.932;25.904;2024-02-28T00:40:00;-16239.53;;;6.43;100.00
8705;BME280;4389;41.932;25.904;2024-02-28T00:42:28;-16235.78;;;6.29;100.00
8705;BME280;4389;41.932;25.904;2024-02-28T00:44:55;-16236.19;;;6.30;100.00
8705;BME280;4389;41.932;25.904;2024-02-28T00:47:22;-16239.00;;;6.41;100.00
8705;BME280;4389;41.932;25.904;2024-02-28T00:49:49;-16237.38;;;6.35;100.00
8705;BME280;4389;41.932;25.904;2024-02-28T00:52:16;-16237.13;;;6.34;100.00
8705;BME280;4389;41.932;25.904;2024-02-28T00:54:42;-16235.25;;;6.27;100.00
8705;BME280;4389;41.932;25.904;2024-02-28T00:57:09;-16233.13;;;6.19;100.00
8705;BME280;4389;41.932;25.904;2024-02-28T00:59:37;-16229.13;;;6.04;100.00
8705;BME280;4389;41.932;25.904;2024-02-28T01:02:05;-16226.47;;;5.94;100.00
8705;BME280;4389;41.932;25.904;2024-02-28T01:04:31;-16227.78;;;5.99;100.00
8705;BME280;4389;41.932;25.904;2024-02-28T01:06:58;-16227.25;;;5.97;100.00
8705;BME280;4389;41.932;25.904;2024-02-28T01:09:25;-16228.19;;;6.00;100.00
8705;BME280;4389;41.932;25.904;2024-02-28T01:11:52;-16226.34;;;5.93;100.00
8705;BME280;4389;41.932;25.904;2024-02-28T01:14:19;-16224.88;;;5.88;100.00
8705;BME280;4389;41.932;25.904;2024-02-28T01:16:47;-16224.59;;;5.87;100.00
8705;BME280;4389;41.932;25.904;2024-02-28T01:19:15;-16222.72;;;5.80;100.00
8705;BME280;4389;41.932;25.904;2024-02-28T01:21:42;-16223.78;;;5.84;100.00
8705;BME280;4389;41.932;25.904;2024-02-28T01:24:09;-16223.94;;;5.84;100.00
8705;BME280;4389;41.932;25.904;2024-02-28T01:26:36;-16223.25;;;5.82;100.00
8705;BME280;4389;41.932;25.904;2024-02-28T01:29:03;-16224.47;;;5.86;100.00
8705;BME280;4389;41.932;25.904;2024-02-28T01:31:29;-16225.41;;;5.90;100.00
8705;BME280;4389;41.932;25.904;2024-02-28T01:33:57;-16224.88;;;5.88;100.00
8705;BME280;4389;41.932;25.904;2024-02-28T01:36:24;-16225.94;;;5.92;100.00
8705;BME280;4389;41.932;25.904;2024-02-28T01:38:52;-16228.06;;;6.00;100.00
8705;BME280;4389;41.932;25.904;2024-02-28T01:41:19;-16229.13;;;6.04;100.00
8705;BME280;4389;41.932;25.904;2024-02-28T01:43:46;-16229.25;;;6.04;100.00
8705;BME280;4389;41.932;25.904;2024-02-28T01:46:20;-16221.13;;;5.74;100.00
8705;BME280;4389;41.932;25.904;2024-02-28T01:48:48;-16219.78;;;5.69;100.00
8705;BME280;4389;41.932;25.904;2024-02-28T01:51:17;-16218.59;;;5.64;100.00
8705;BME280;4389;41.932;25.904;2024-02-28T01:53:44;-16210.47;;;5.34;100.00
8705;BME280;4389;41.932;25.904;2024-02-28T01:56:12;-16209.94;;;5.32;100.00
8705;BME280;4389;41.932;25.904;2024-02-28T01:58:39;-16210.19;;;5.33;100.00
8705;BME280;4389;41.932;25.904;2024-02-28T02:01:06;-16212.06;;;5.40;100.00
8705;BME280;4389;41.932;25.904;2024-02-28T02:03:35;-16208.59;;;5.27;100.00
8705;BME280;4389;41.932;25.904;2024-02-28T02:06:03;-16210.47;;;5.34;100.00
8705;BME280;4389;41.932;25.904;2024-02-28T02:08:32;-16206.19;;;5.18;100.00
8705;BME280;4389;41.932;25.904;2024-02-28T02:10:59;-16203.25;;;5.07;100.00
8705;BME280;4389;41.932;25.904;2024-02-28T02:13:26;-16204.06;;;5.10;100.00
8705;BME280;4389;41.932;25.904;2024-02-28T02:15:53;-16200.34;;;4.96;100.00
8705;BME280;4389;41.932;25.904;2024-02-28T02:18:20;-16198.72;;;4.90;100.00
8705;BME280;4389;41.932;25.904;2024-02-28T02:20:50;-16199.41;;;4.92;100.00
8705;BME280;4389;41.932;25.904;2024-02-28T02:23:20;-16198.06;;;4.87;100.00
8705;BME280;4389;41.932;25.904;2024-02-28T02:25:48;-16199.25;;;4.92;100.00
8705;BME280;4389;41.932;25.904;2024-02-28T02:28:23;-16202.72;;;5.05;100.00
8705;BME280;4389;41.932;25.904;2024-02-28T02:30:50;-16201.53;;;5.00;100.00
8705;BME280;4389;41.932;25.904;2024-02-28T02:33:17;-16198.72;;;4.90;100.00
8705;BME280;4389;41.932;25.904;2024-02-28T02:35:44;-16196.72;;;4.82;100.00
8705;BME280;4389;41.932;25.904;2024-02-28T02:38:10;-16197.94;;;4.87;100.00
8705;BME280;4389;41.932;25.904;2024-02-28T02:40:39;-16192.59;;;4.67;100.00
8705;BME280;4389;41.932;25.904;2024-02-28T02:43:05;-16193.13;;;4.69;100.00
8705;BME280;4389;41.932;25.904;2024-02-28T02:45:32;-16193.66;;;4.71;100.00
8705;BME280;4389;41.932;25.904;2024-02-28T02:47:59;-16198.19;;;4.88;100.00
8705;BME280;4389;41.932;25.904;2024-02-28T02:50:26;-16197.81;;;4.86;100.00
8705;BME280;4389;41.932;25.904;2024-02-28T02:52:53;-16195.00;;;4.76;100.00
8705;BME280;4389;41.932;25.904;2024-02-28T02:55:19;-16194.47;;;4.74;100.00
8705;BME280;4389;41.932;25.904;2024-02-28T02:57:47;-16192.47;;;4.66;100.00
8705;BME280;4389;41.932;25.904;2024-02-28T03:00:15;-16194.59;;;4.74;100.00
8705;BME280;4389;41.932;25.904;2024-02-28T03:02:41;-16191.81;;;4.64;100.00
8705;BME280;4389;41.932;25.904;2024-02-28T03:05:08;-16192.59;;;4.67;100.00
8705;BME280;4389;41.932;25.904;2024-02-28T03:07:35;-16192.88;;;4.68;100.00
8705;BME280;4389;41.932;25.904;2024-02-28T03:10:02;-16195.25;;;4.77;100.00
8705;BME280;4389;41.932;25.904;2024-02-28T03:12:29;-16192.88;;;4.68;100.00
8705;BME280;4389;41.932;25.904;2024-02-28T03:14:57;-16191.25;;;4.62;100.00
8705;BME280;4389;41.932;25.904;2024-02-28T03:17:24;-16191.13;;;4.61;100.00
8705;BME280;4389;41.932;25.904;2024-02-28T03:19:51;-16186.72;;;4.45;100.00
8705;BME280;4389;41.932;25.904;2024-02-28T03:22:18;-16180.34;;;4.21;100.00
8705;BME280;4389;41.932;25.904;2024-02-28T03:24:45;-16175.66;;;4.04;100.00
8705;BME280;4389;41.932;25.904;2024-02-28T03:27:11;-16175.81;;;4.04;100.00
8705;BME280;4389;41.932;25.904;2024-02-28T03:29:38;-16177.25;;;4.10;100.00
8705;BME280;4389;41.932;25.904;2024-02-28T03:32:08;-16179.81;;;4.19;100.00
8705;BME280;4389;41.932;25.904;2024-02-28T03:34:35;-16181.41;;;4.25;100.00
8705;BME280;4389;41.932;25.904;2024-02-28T03:37:02;-16181.00;;;4.23;100.00
8705;BME280;4389;41.932;25.904;2024-02-28T03:39:28;-16178.34;;;4.14;100.00
8705;BME280;4389;41.932;25.904;2024-02-28T03:41:55;-16174.47;;;3.99;100.00
8705;BME280;4389;41.932;25.904;2024-02-28T03:44:22;-16177.41;;;4.10;100.00
8705;BME280;4389;41.932;25.904;2024-02-28T03:46:51;-16176.88;;;4.08;100.00
8705;BME280;4389;41.932;25.904;2024-02-28T03:49:19;-16175.41;;;4.03;100.00
8705;BME280;4389;41.932;25.904;2024-02-28T03:51:46;-16172.47;;;3.92;100.00
8705;BME280;4389;41.932;25.904;2024-02-28T03:54:12;-16167.78;;;3.74;100.00
8705;BME280;4389;41.932;25.904;2024-02-28T03:56:39;-16169.53;;;3.81;100.00
8705;BME280;4389;41.932;25.904;2024-02-28T03:59:06;-16171.13;;;3.87;100.00
8705;BME280;4389;41.932;25.904;2024-02-28T04:01:33;-16176.72;;;4.08;100.00
8705;BME280;4389;41.932;25.904;2024-02-28T04:03:59;-16180.72;;;4.22;100.00
8705;BME280;4389;41.932;25.904;2024-02-28T04:06:29;-16176.88;;;4.08;100.00
8705;BME280;4389;41.932;25.904;2024-02-28T04:08:56;-16168.59;;;3.77;100.00
8705;BME280;4389;41.932;25.904;2024-02-28T04:11:23;-16167.66;;;3.74;100.00
8705;BME280;4389;41.932;25.904;2024-02-28T04:13:49;-16172.72;;;3.93;100.00
8705;BME280;4389;41.932;25.904;2024-02-28T04:16:16;-16176.34;;;4.06;100.00
8705;BME280;4389;41.932;25.904;2024-02-28T04:18:43;-16170.06;;;3.83;100.00
8705;BME280;4389;41.932;25.904;2024-02-28T04:21:10;-16172.34;;;3.91;100.00
8705;BME280;4389;41.932;25.904;2024-02-28T04:23:38;-16174.19;;;3.98;100.00
8705;BME280;4389;41.932;25.904;2024-02-28T04:26:07;-16165.66;;;3.66;100.00
8705;BME280;4389;41.932;25.904;2024-02-28T04:28:35;-16165.41;;;3.65;100.00
8705;BME280;4389;41.932;25.904;2024-02-28T04:31:02;-16169.41;;;3.80;100.00
8705;BME280;4389;41.932;25.904;2024-02-28T04:33:28;-16170.72;;;3.85;100.00
8705;BME280;4389;41.932;25.904;2024-02-28T04:35:55;-16168.72;;;3.78;100.00
8705;BME280;4389;41.932;25.904;2024-02-28T04:38:22;-16164.84;;;3.63;100.00
8705;BME280;4389;41.932;25.904;2024-02-28T04:40:50;-16165.94;;;3.67;100.00
8705;BME280;4389;41.932;25.904;2024-02-28T04:43:17;-16164.19;;;3.61;100.00
8705;BME280;4389;41.932;25.904;2024-02-28T04:45:44;-16169.25;;;3.80;100.00
8705;BME280;4389;41.932;25.904;2024-02-28T04:48:11;-16172.06;;;3.90;100.00
8705;BME280;4389;41.932;25.904;2024-02-28T04:50:38;-16172.34;;;3.91;100.00
8705;BME280;4389;41.932;25.904;2024-02-28T04:53:04;-16174.59;;;4.00;100.00
8705;BME280;4389;41.932;25.904;2024-02-28T04:55:31;-16172.88;;;3.93;100.00
8705;BME280;4389;41.932;25.904;2024-02-28T04:57:59;-16175.53;;;4.03;100.00
8705;BME280;4389;41.932;25.904;2024-02-28T05:00:26;-16174.47;;;3.99;100.00
8705;BME280;4389;41.932;25.904;2024-02-28T05:02:53;-16173.66;;;3.96;100.00
8705;BME280;4389;41.932;25.904;2024-02-28T05:05:20;-16172.59;;;3.92;100.00
8705;BME280;4389;41.932;25.904;2024-02-28T05:07:46;-16170.47;;;3.84;100.00
8705;BME280;4389;41.932;25.904;2024-02-28T05:10:13;-16166.59;;;3.70;100.00
8705;BME280;4389;41.932;25.904;2024-02-28T05:12:40;-16164.84;;;3.63;100.00
8705;BME280;4389;41.932;25.904;2024-02-28T05:15:10;-16169.41;;;3.80;100.00
8705;BME280;4389;41.932;25.904;2024-02-28T05:17:36;-16171.00;;;3.86;100.00
8705;BME280;4389;41.932;25.904;2024-02-28T05:20:04;-16166.59;;;3.70;100.00
8705;BME280;4389;41.932;25.904;2024-02-28T05:22:31;-16163.25;;;3.57;100.00
8705;BME280;4389;41.932;25.904;2024-02-28T05:24:57;-16171.13;;;3.87;100.00
8705;BME280;4389;41.932;25.904;2024-02-28T05:27:24;-16177.13;;;4.09;100.00
8705;BME280;4389;41.932;25.904;2024-02-28T05:29:51;-16182.19;;;4.28;100.00
8705;BME280;4389;41.932;25.904;2024-02-28T05:32:19;-16184.19;;;4.35;100.00
8705;BME280;4389;41.932;25.904;2024-02-28T05:34:46;-16189.13;;;4.54;100.00
8705;BME280;4389;41.932;25.904;2024-02-28T05:37:13;-16189.94;;;4.57;100.00
8705;BME280;4389;41.932;25.904;2024-02-28T05:39:42;-16195.53;;;4.78;100.00
8705;BME280;4389;41.932;25.904;2024-02-28T05:42:09;-16197.13;;;4.84;100.00
8705;BME280;4389;41.932;25.904;2024-02-28T05:44:36;-16197.41;;;4.85;100.00
8705;BME280;4389;41.932;25.904;2024-02-28T05:47:02;-16196.34;;;4.81;100.00
8705;BME280;4389;41.932;25.904;2024-02-28T05:49:31;-16206.19;;;5.18;100.00
8705;BME280;4389;41.932;25.904;2024-02-28T05:51:57;-16213.94;;;5.47;100.00
8705;BME280;4389;41.932;25.904;2024-02-28T05:54:24;-16209.53;;;5.30;100.00
8705;BME280;4389;41.932;25.904;2024-02-28T05:56:51;-16211.00;;;5.36;100.00
8705;BME280;4389;41.932;25.904;2024-02-28T05:59:18;-16215.00;;;5.51;100.00
8705;BME280;4389;41.932;25.904;2024-02-28T06:01:45;-16218.47;;;5.64;100.00
8705;BME280;4389;41.932;25.904;2024-02-28T06:04:12;-16222.72;;;5.80;100.00
8705;BME280;4389;41.932;25.904;2024-02-28T06:06:41;-16226.19;;;5.93;100.00
8705;BME280;4389;41.932;25.904;2024-02-28T06:09:07;-16223.41;;;5.82;100.00
8705;BME280;4389;41.932;25.904;2024-02-28T06:11:35;-16227.53;;;5.98;100.00
8705;BME280;4389;41.932;25.904;2024-02-28T06:14:02;-16227.00;;;5.96;100.00
8705;BME280;4389;41.932;25.904;2024-02-28T06:16:29;-16232.06;;;6.15;100.00
8705;BME280;4389;41.932;25.904;2024-02-28T06:18:56;-16236.59;;;6.32;100.00
8705;BME280;4389;41.932;25.904;2024-02-28T06:21:23;-16236.06;;;6.30;100.00
8705;BME280;4389;41.932;25.904;2024-02-28T06:23:51;-16242.06;;;6.52;100.00
8705;BME280;4389;41.932;25.904;2024-02-28T06:26:18;-16243.25;;;6.57;100.00
8705;BME280;4389;41.932;25.904;2024-02-28T06:28:46;-16247.38;;;6.72;100.00
8705;BME280;4389;41.932;25.904;2024-02-28T06:31:14;-16250.97;;;6.86;100.00
8705;BME280;4389;41.932;25.904;2024-02-28T06:33:41;-16256.31;;;7.06;100.00
8705;BME280;4389;41.932;25.904;2024-02-28T06:36:08;-16258.97;;;7.16;100.00
8705;BME280;4389;41.932;25.904;2024-02-28T06:38:35;-16254.44;;;6.99;100.00
8705;BME280;4389;41.932;25.904;2024-02-28T06:41:04;-16255.50;;;7.03;100.00
8705;BME280;4389;41.932;25.904;2024-02-28T06:43:33;-16263.91;;;7.34;100.00
8705;BME280;4389;41.932;25.904;2024-02-28T06:46:00;-16270.97;;;7.61;100.00
8705;BME280;4389;41.932;25.904;2024-02-28T06:48:28;-16277.63;;;7.86;100.00
8705;BME280;4389;41.932;25.904;2024-02-28T06:50:55;-16275.63;;;7.78;100.00
8705;BME280;4389;41.932;25.904;2024-02-28T06:53:23;-16284.00;;;8.10;100.00
8705;BME280;4389;41.932;25.904;2024-02-28T06:55:49;-16292.13;;;8.40;100.00
8705;BME280;4389;41.932;25.904;2024-02-28T06:58:17;-16287.47;;;8.23;100.00
8705;BME280;4389;41.932;25.904;2024-02-28T07:00:44;-16290.41;;;8.34;100.00
8705;BME280;4389;41.932;25.904;2024-02-28T07:03:11;-16290.66;;;8.35;100.00
8705;BME280;4389;41.932;25.904;2024-02-28T07:05:38;-16292.00;;;8.40;100.00
8705;BME280;4389;41.932;25.904;2024-02-28T07:08:05;-16294.78;;;8.50;100.00
8705;BME280;4389;41.932;25.904;2024-02-28T07:10:32;-16300.66;;;8.72;100.00
8705;BME280;4389;41.932;25.904;2024-02-28T07:12:58;-16298.41;;;8.64;100.00
8705;BME280;4389;41.932;25.904;2024-02-28T07:15:27;-16298.53;;;8.64;100.00
8705;BME280;4389;41.932;25.904;2024-02-28T07:17:53;-16306.13;;;8.93;100.00
8705;BME280;4389;41.932;25.904;2024-02-28T07:20:20;-16309.03;;;9.03;100.00
8705;BME280;4389;41.932;25.904;2024-02-28T07:22:47;-16308.91;;;9.03;100.00
8705;BME280;4389;41.932;25.904;2024-02-28T07:25:14;-16316.38;;;9.31;100.00
8705;BME280;4389;41.932;25.904;2024-02-28T07:27:41;-16318.63;;;9.39;100.00
8705;BME280;4389;41.932;25.904;2024-02-28T07:30:08;-16313.56;;;9.20;100.00
8705;BME280;4389;41.932;25.904;2024-02-28T07:32:36;-16315.16;;;9.26;100.00
8705;BME280;4389;41.932;25.904;2024-02-28T07:35:03;-16317.03;;;9.33;100.00
8705;BME280;4389;41.932;25.904;2024-02-28T07:37:30;-16323.00;;;9.56;100.00
8705;BME280;4389;41.932;25.904;2024-02-28T07:39:58;-16320.22;;;9.45;100.00
8705;BME280;4389;41.932;25.904;2024-02-28T07:42:25;-16329.25;;;9.79;100.00
8705;BME280;4389;41.932;25.904;2024-02-28T07:44:52;-16331.66;;;9.88;100.00
8705;BME280;4389;41.932;25.904;2024-02-28T07:47:22;-16331.25;;;9.87;100.00
8705;BME280;4389;41.932;25.904;2024-02-28T07:49:51;-16329.25;;;9.79;100.00
8705;BME280;4389;41.932;25.904;2024-02-28T07:52:19;-16321.56;;;9.50;100.00
8705;BME280;4389;41.932;25.904;2024-02-28T07:54:45;-16324.88;;;9.63;100.00
8705;BME280;4389;41.932;25.904;2024-02-28T07:57:14;-16325.81;;;9.66;100.00
8705;BME280;4389;41.932;25.904;2024-02-28T07:59:40;-16319.94;;;9.44;100.00
8705;BME280;4389;41.932;25.904;2024-02-28T08:02:07;-16325.41;;;9.65;100.00
8705;BME280;4389;41.932;25.904;2024-02-28T08:04:35;-16325.00;;;9.63;100.00
8705;BME280;4389;41.932;25.904;2024-02-28T08:07:03;-16331.66;;;9.88;100.00
8705;BME280;4389;41.932;25.904;2024-02-28T08:09:30;-16334.19;;;9.98;100.00
8705;BME280;4389;41.932;25.904;2024-02-28T08:11:57;-16335.66;;;10.03;100.00
8705;BME280;4389;41.932;25.904;2024-02-28T08:14:24;-16348.97;;;10.53;100.00
8705;BME280;4389;41.932;25.904;2024-02-28T08:16:51;-16356.00;;;10.80;100.00
8705;BME280;4389;41.932;25.904;2024-02-28T08:19:18;-16359.34;;;10.92;100.00
8705;BME280;4389;41.932;25.904;2024-02-28T08:21:45;-16353.75;;;10.71;100.00
8705;BME280;4389;41.932;25.904;2024-02-28T08:24:13;-16350.81;;;10.60;100.00
8705;BME280;4389;41.932;25.904;2024-02-28T08:26:40;-16355.06;;;10.76;100.00
8705;BME280;4389;41.932;25.904;2024-02-28T08:29:07;-16360.00;;;10.95;100.00
8705;BME280;4389;41.932;25.904;2024-02-28T08:31:39;-16371.81;;;11.39;100.00
8705;BME280;4389;41.932;25.904;2024-02-28T08:34:06;-16386.31;;;11.94;100.00
8705;BME280;4389;41.932;25.904;2024-02-28T08:36:33;-16374.22;;;11.48;100.00
8705;BME280;4389;41.932;25.904;2024-02-28T08:39:00;-16369.97;;;11.32;100.00
8705;BME280;4389;41.932;25.904;2024-02-28T08:41:31;-16366.78;;;11.20;100.00
8705;BME280;4389;41.932;25.904;2024-02-28T08:43:58;-16361.72;;;11.01;100.00
8705;BME280;4389;41.932;25.904;2024-02-28T08:46:25;-16365.72;;;11.16;100.00
8705;BME280;4389;41.932;25.904;2024-02-28T08:48:52;-16373.97;;;11.47;100.00
8705;BME280;4389;41.932;25.904;2024-02-28T08:51:18;-16386.72;;;11.95;100.00
8705;BME280;4389;41.932;25.904;2024-02-28T08:53:45;-16397.88;;;12.37;100.00
8705;BME280;4389;41.932;25.904;2024-02-28T08:56:12;-16393.91;;;12.22;100.00
8705;BME280;4389;41.932;25.904;2024-02-28T08:58:40;-16393.38;;;12.20;100.00
8705;BME280;4389;41.932;25.904;2024-02-28T09:01:07;-16393.09;;;12.19;100.00
8705;BME280;4389;41.932;25.904;2024-02-28T09:03:34;-16400.13;;;12.46;100.00
8705;BME280;4389;41.932;25.904;2024-02-28T09:06:01;-16408.50;;;12.77;100.00
8705;BME280;4389;41.932;25.904;2024-02-28T09:08:28;-16409.72;;;12.82;100.00
8705;BME280;4389;41.932;25.904;2024-02-28T09:10:55;-16409.44;;;12.81;100.00
8705;BME280;4389;41.932;25.904;2024-02-28T09:13:22;-16403.88;;;12.60;100.00
8705;BME280;4389;41.932;25.904;2024-02-28T09:15:50;-16406.66;;;12.70;100.00
8705;BME280;4389;41.932;25.904;2024-02-28T09:18:17;-16414.38;;;12.99;100.00
8705;BME280;4389;41.932;25.904;2024-02-28T09:20:44;-16417.28;;;13.10;98.55
8705;BME280;4389;41.932;25.904;2024-02-28T09:23:11;-16410.38;;;12.84;100.00
8705;BME280;4389;41.932;25.904;2024-02-28T09:25:38;-16405.31;;;12.65;100.00
8705;BME280;4389;41.932;25.904;2024-02-28T09:28:05;-16403.47;;;12.58;100.00
8705;BME280;4389;41.932;25.904;2024-02-28T09:30:32;-16400.00;;;12.45;100.00
8705;BME280;4389;41.932;25.904;2024-02-28T09:33:00;-16409.56;;;12.81;100.00
8705;BME280;4389;41.932;25.904;2024-02-28T09:35:27;-16408.25;;;12.76;100.00
8705;BME280;4389;41.932;25.904;2024-02-28T09:37:54;-16408.13;;;12.76;100.00
8705;BME280;4389;41.932;25.904;2024-02-28T09:40:22;-16411.69;;;12.89;100.00
8705;BME280;4389;41.932;25.904;2024-02-28T09:42:52;-16411.56;;;12.89;100.00
8705;BME280;4389;41.932;25.904;2024-02-28T09:45:20;-16413.84;;;12.97;100.00
8705;BME280;4389;41.932;25.904;2024-02-28T09:47:48;-16412.50;;;12.92;100.00
8705;BME280;4389;41.932;25.904;2024-02-28T09:50:17;-16412.22;;;12.91;100.00
8705;BME280;4389;41.932;25.904;2024-02-28T09:52:44;-16417.28;;;13.10;99.26
8705;BME280;4389;41.932;25.904;2024-02-28T09:55:11;-16422.84;;;13.31;97.54
8705;BME280;4389;41.932;25.904;2024-02-28T09:57:39;-16430.03;;;13.58;96.20
8705;BME280;4389;41.932;25.904;2024-02-28T10:00:07;-16433.63;;;13.72;95.29
8705;BME280;4389;41.932;25.904;2024-02-28T10:02:37;-16439.59;;;13.94;93.63
8705;BME280;4389;41.932;25.904;2024-02-28T10:05:06;-16436.41;;;13.82;92.15
8705;BME280;4389;41.932;25.904;2024-02-28T10:07:35;-16440.38;;;13.97;91.87
8705;BME280;4389;41.932;25.904;2024-02-28T10:10:02;-16440.66;;;13.98;91.89
8705;BME280;4389;41.932;25.904;2024-02-28T10:12:30;-16443.03;;;14.07;91.08
8705;BME280;4389;41.932;25.904;2024-02-28T10:14:57;-16444.78;;;14.13;89.52
8705;BME280;4389;41.932;25.904;2024-02-28T10:17:24;-16449.81;;;14.32;88.94
8705;BME280;4389;41.932;25.904;2024-02-28T10:19:51;-16452.59;;;14.43;88.73
8705;BME280;4389;41.932;25.904;2024-02-28T10:22:18;-16455.25;;;14.53;87.53
8705;BME280;4389;41.932;25.904;2024-02-28T10:24:47;-16459.78;;;14.70;86.25
8705;BME280;4389;41.932;25.904;2024-02-28T10:27:15;-16460.19;;;14.71;85.53
8705;BME280;4389;41.932;25.904;2024-02-28T10:29:44;-16462.44;;;14.80;85.10
8705;BME280;4389;41.932;25.904;2024-02-28T10:32:12;-16466.94;;;14.97;82.94
8705;BME280;4389;41.932;25.904;2024-02-28T10:34:39;-16470.25;;;15.09;82.44
8705;BME280;4389;41.932;25.904;2024-02-28T10:37:06;-16477.03;;;15.35;80.74
8705;BME280;4389;41.932;25.904;2024-02-28T10:39:34;-16481.28;;;15.51;79.75
8705;BME280;4389;41.932;25.904;2024-02-28T10:42:03;-16483.25;;;15.58;77.57
8705;BME280;4389;41.932;25.904;2024-02-28T10:44:31;-16486.56;;;15.71;76.62
8705;BME280;4389;41.932;25.904;2024-02-28T10:47:00;-16488.97;;;15.80;76.72
8705;BME280;4389;41.932;25.904;2024-02-28T10:49:27;-16490.03;;;15.84;74.88
8705;BME280;4389;41.932;25.904;2024-02-28T10:51:56;-16490.81;;;15.87;76.28
8705;BME280;4389;41.932;25.904;2024-02-28T10:54:24;-16494.81;;;16.02;74.97
8705;BME280;4389;41.932;25.904;2024-02-28T10:56:52;-16498.38;;;16.15;73.86
8705;BME280;4389;41.932;25.904;2024-02-28T10:59:23;-16504.63;;;16.39;72.40
8705;BME280;4389;41.932;25.904;2024-02-28T11:01:52;-16504.22;;;16.37;71.26
8705;BME280;4389;41.932;25.904;2024-02-28T11:04:19;-16503.03;;;16.33;71.03
8705;BME280;4389;41.932;25.904;2024-02-28T11:06:49;-16500.63;;;16.24;71.50
8705;BME280;4389;41.932;25.904;2024-02-28T11:09:20;-16507.28;;;16.49;70.51
8705;BME280;4389;41.932;25.904;2024-02-28T11:11:49;-16512.84;;;16.70;69.49
8705;BME280;4389;41.932;25.904;2024-02-28T11:14:17;-16519.47;;;16.95;68.24
8705;BME280;4389;41.932;25.904;2024-02-28T11:16:58;-16520.25;;;16.98;67.66
8705;BME280;4389;41.932;25.904;2024-02-28T11:19:28;-16519.19;;;16.94;66.67
8705;BME280;4389;41.932;25.904;2024-02-28T11:21:55;-16516.28;;;16.83;67.56
8705;BME280;4389;41.932;25.904;2024-02-28T11:24:29;-16516.03;;;16.82;67.79
8705;BME280;4389;41.932;25.904;2024-02-28T11:26:56;-16519.72;;;16.96;68.07
8705;BME280;4389;41.932;25.904;2024-02-28T11:29:24;-16520.00;;;16.97;66.99
8705;BME280;4389;41.932;25.904;2024-02-28T11:31:55;-16519.59;;;16.95;67.89
8705;BME280;4389;41.932;25.904;2024-02-28T11:34:22;-16520.78;;;17.00;67.45
8705;BME280;4389;41.932;25.904;2024-02-28T11:36:50;-16524.25;;;17.13;66.20
8705;BME280;4389;41.932;25.904;2024-02-28T11:39:18;-16523.72;;;17.11;65.52
8705;BME280;4389;41.932;25.904;2024-02-28T11:41:46;-16522.66;;;17.07;66.37
8705;BME280;4389;41.932;25.904;2024-02-28T11:44:15;-16524.75;;;17.15;66.18
8705;BME280;4389;41.932;25.904;2024-02-28T11:46:43;-16526.09;;;17.20;67.43
8705;BME280;4389;41.932;25.904;2024-02-28T11:49:12;-16529.66;;;17.33;66.40
8705;BME280;4389;41.932;25.904;2024-02-28T11:51:40;-16530.34;;;17.36;66.75
8705;BME280;4389;41.932;25.904;2024-02-28T11:54:08;-16534.84;;;17.53;65.79
8705;BME280;4389;41.932;25.904;2024-02-28T11:56:36;-16534.03;;;17.50;62.75
8705;BME280;4389;41.932;25.904;2024-02-28T11:59:04;-16533.38;;;17.47;62.10
8705;BME280;4389;41.932;25.904;2024-02-28T12:01:35;-16532.19;;;17.43;60.76
8705;BME280;4389;41.932;25.904;2024-02-28T12:04:03;-16534.84;;;17.53;60.81
8705;BME280;4389;41.932;25.904;2024-02-28T12:06:32;-16539.34;;;17.70;59.23
8705;BME280;4389;41.932;25.904;2024-02-28T12:09:00;-16541.19;;;17.77;58.48
8705;BME280;4389;41.932;25.904;2024-02-28T12:11:27;-16543.84;;;17.87;58.29
8705;BME280;4389;41.932;25.904;2024-02-28T12:13:55;-16547.44;;;18.00;57.61
8705;BME280;4389;41.932;25.904;2024-02-28T12:16:23;-16546.50;;;17.97;57.89
8705;BME280;4389;41.932;25.904;2024-02-28T12:18:51;-16547.97;;;18.02;58.44
8705;BME280;4389;41.932;25.904;2024-02-28T12:21:18;-16550.34;;;18.11;58.03
8705;BME280;4389;41.932;25.904;2024-02-28T12:23:46;-16548.88;;;18.06;56.76
8705;BME280;4389;41.932;25.904;2024-02-28T12:26:16;-16548.75;;;18.05;57.13
8705;BME280;4389;41.932;25.904;2024-02-28T12:28:44;-16549.69;;;18.09;58.07
8705;BME280;4389;41.932;25.904;2024-02-28T12:31:11;-16549.81;;;18.09;58.19
8705;BME280;4389;41.932;25.904;2024-02-28T12:33:38;-16552.59;;;18.20;57.92
8705;BME280;4389;41.932;25.904;2024-02-28T12:36:06;-16555.25;;;18.30;56.81
8705;BME280;4389;41.932;25.904;2024-02-28T12:38:33;-16557.22;;;18.37;56.42
8705;BME280;4389;41.932;25.904;2024-02-28T12:41:02;-16556.31;;;18.34;56.01
8705;BME280;4389;41.932;25.904;2024-02-28T12:43:30;-16557.91;;;18.40;56.22
8705;BME280;4389;41.932;25.904;2024-02-28T12:45:57;-16559.50;;;18.46;56.10
8705;BME280;4389;41.932;25.904;2024-02-28T12:48:24;-16560.69;;;18.50;56.32
8705;BME280;4389;41.932;25.904;2024-02-28T12:50:51;-16560.81;;;18.51;55.55
8705;BME280;4389;41.932;25.904;2024-02-28T12:53:18;-16561.34;;;18.53;55.75
8705;BME280;4389;41.932;25.904;2024-02-28T12:55:45;-16563.19;;;18.60;55.20
8705;BME280;4389;41.932;25.904;2024-02-28T12:58:13;-16565.72;;;18.69;55.04
8705;BME280;4389;41.932;25.904;2024-02-28T13:00:40;-16567.69;;;18.77;55.34